createdAt,value
2023-03-14T00:01:16.545Z,19.65
2023-03-14T00:03:44.193Z,20.63
2023-03-14T00:06:12.261Z,21.27
2023-03-14T00:08:39.508Z,19.50
2023-03-14T00:11:11.886Z,17.58
2023-03-14T00:13:39.308Z,18.35
2023-03-14T00:16:08.641Z,17.92
2023-03-14T00:18:35.998Z,16.77
2023-03-14T00:21:05.561Z,15.80
2023-03-14T00:23:33.896Z,15.43
2023-03-14T00:26:07.296Z,13.73
2023-03-14T00:28:34.197Z,13.35
2023-03-14T00:31:05.089Z,12.27
2023-03-14T00:33:32.077Z,13.25
2023-03-14T00:36:01.401Z,12.57
2023-03-14T00:38:31.267Z,13.02
2023-03-14T00:40:58.258Z,12.55
2023-03-14T00:43:25.292Z,11.95
2023-03-14T00:45:53.062Z,12.35
2023-03-14T00:48:20.817Z,10.77
2023-03-14T00:50:48.319Z,10.15
2023-03-14T00:53:15.945Z,9.52
2023-03-14T00:55:44.422Z,10.05
2023-03-14T00:58:16.131Z,9.57
2023-03-14T01:00:43.710Z,9.23
2023-03-14T01:03:11.596Z,7.18
2023-03-14T01:05:39.008Z,6.80
2023-03-14T01:08:07.993Z,6.47
2023-03-14T01:10:35.807Z,5.47
2023-03-14T01:13:02.503Z,5.28
2023-03-14T01:15:29.211Z,5.40
2023-03-14T01:17:55.909Z,5.07
2023-03-14T01:20:23.672Z,4.50
2023-03-14T01:22:50.328Z,4.55
2023-03-14T01:25:18.486Z,3.65
2023-03-14T01:27:45.587Z,3.80
2023-03-14T01:30:12.951Z,2.58
2023-03-14T01:32:39.785Z,2.83
2023-03-14T01:35:07.541Z,2.58
2023-03-14T01:37:35.011Z,2.33
2023-03-14T01:40:02.258Z,2.13
2023-03-14T01:42:28.945Z,2.28
2023-03-14T01:45:01.804Z,1.65
2023-03-14T01:47:29.939Z,1.50
2023-03-14T01:50:00.185Z,1.50
2023-03-14T01:52:37.712Z,1.35
2023-03-14T01:55:08.133Z,1.30
2023-03-14T01:57:44.074Z,1.23
2023-03-14T02:00:15.214Z,1.30
2023-03-14T02:02:51.274Z,1.55
2023-03-14T02:05:24.044Z,1.80
2023-03-14T02:07:57.962Z,1.70
2023-03-14T02:10:33.025Z,1.60
2023-03-14T02:13:04.688Z,2.08
2023-03-14T02:15:47.051Z,3.25
2023-03-14T02:18:37.039Z,3.10
2023-03-14T02:21:33.157Z,2.20
2023-03-14T02:24:07.634Z,2.72
2023-03-14T02:27:14.035Z,2.55
2023-03-14T02:30:00.808Z,1.02
2023-03-14T02:32:31.352Z,1.10
2023-03-14T02:35:00.640Z,0.80
2023-03-14T02:37:43.569Z,0.80
2023-03-14T02:40:11.674Z,0.60
2023-03-14T02:42:40.003Z,0.30
2023-03-14T02:45:09.752Z,0.40
2023-03-14T02:47:43.959Z,0.40
2023-03-14T02:50:18.324Z,0.28
2023-03-14T02:52:45.279Z,0.32
2023-03-14T02:55:11.962Z,0.40
2023-03-14T02:57:41.569Z,0.40
2023-03-14T03:00:09.324Z,0.50
2023-03-14T03:02:37.994Z,0.47
2023-03-14T03:05:04.879Z,0.40
2023-03-14T03:07:31.604Z,0.50
2023-03-14T03:09:59.682Z,0.17
2023-03-14T03:12:26.769Z,0.20
2023-03-14T03:14:53.547Z,0.20
2023-03-14T03:17:20.394Z,0.60
2023-03-14T03:19:47.032Z,0.40
2023-03-14T03:22:13.746Z,0.38
2023-03-14T03:24:41.517Z,0.40
2023-03-14T03:27:08.290Z,0.40
2023-03-14T03:29:35.353Z,0.30
2023-03-14T03:32:02.596Z,0.68
2023-03-14T03:34:29.274Z,0.30
2023-03-14T03:36:58.343Z,0.43
2023-03-14T03:39:26.419Z,0.30
2023-03-14T03:41:53.209Z,0.30
2023-03-14T03:44:20.534Z,0.20
2023-03-14T03:46:47.396Z,0.43
2023-03-14T03:49:14.023Z,0.22
2023-03-14T03:51:41.715Z,0.28
2023-03-14T03:54:08.926Z,0.20
2023-03-14T03:56:35.624Z,0.40
2023-03-14T03:59:02.415Z,0.30
2023-03-14T04:01:29.217Z,0.30
2023-03-14T04:03:59.037Z,0.30
2023-03-14T04:06:26.801Z,0.47
2023-03-14T04:08:55.946Z,0.30
2023-03-14T04:11:31.410Z,0.25
2023-03-14T04:14:05.986Z,0.30
2023-03-14T04:16:32.956Z,0.30
2023-03-14T04:19:09.351Z,0.20
2023-03-14T04:21:36.819Z,0.38
2023-03-14T04:24:03.661Z,0.30
2023-03-14T04:26:33.470Z,0.25
2023-03-14T04:29:00.211Z,0.30
2023-03-14T04:31:27.410Z,0.10
2023-03-14T04:33:54.100Z,0.30
2023-03-14T04:36:28.976Z,0.30
2023-03-14T04:38:57.577Z,0.22
2023-03-14T04:41:25.591Z,0.30
2023-03-14T04:43:52.410Z,0.55
2023-03-14T04:46:20.486Z,0.50
2023-03-14T04:48:47.752Z,0.40
2023-03-14T04:51:16.292Z,0.75
2023-03-14T04:53:42.967Z,0.80
2023-03-14T04:56:13.973Z,0.50
2023-03-14T04:58:42.757Z,0.70
2023-03-14T05:01:09.400Z,0.68
2023-03-14T05:03:55.428Z,0.65
2023-03-14T05:06:40.789Z,0.55
2023-03-14T05:09:42.503Z,0.47
2023-03-14T05:12:24.170Z,0.50
2023-03-14T05:15:20.612Z,0.68
2023-03-14T05:18:10.387Z,0.40
2023-03-14T05:20:55.707Z,0.68
2023-03-14T05:23:40.885Z,0.27
2023-03-14T05:26:26.207Z,0.57
2023-03-14T05:29:06.001Z,0.60
2023-03-14T05:31:52.918Z,0.68
2023-03-14T05:34:30.816Z,0.40
2023-03-14T05:37:10.914Z,0.70
2023-03-14T05:39:48.155Z,0.80
2023-03-14T05:42:38.038Z,0.40
2023-03-14T05:45:36.277Z,0.85
2023-03-14T05:48:10.547Z,0.60
2023-03-14T05:50:55.816Z,0.52
2023-03-14T05:53:37.842Z,0.50
2023-03-14T05:56:37.028Z,0.30
2023-03-14T05:59:22.569Z,0.35
2023-03-14T06:02:09.628Z,0.47
2023-03-14T06:04:49.265Z,0.30
2023-03-14T06:07:16.142Z,0.40
2023-03-14T06:09:43.487Z,0.40
2023-03-14T06:12:10.494Z,0.60
2023-03-14T06:14:42.526Z,0.50
2023-03-14T06:17:09.173Z,0.47
2023-03-14T06:19:42.915Z,0.30
2023-03-14T06:22:11.895Z,0.93
2023-03-14T06:24:39.122Z,0.68
2023-03-14T06:27:05.972Z,0.30
2023-03-14T06:29:32.860Z,0.40
2023-03-14T06:32:00.821Z,0.43
2023-03-14T06:34:27.458Z,0.40
2023-03-14T06:36:54.606Z,0.35
2023-03-14T06:39:21.276Z,0.40
2023-03-14T06:41:53.034Z,0.50
2023-03-14T06:44:20.214Z,0.50
2023-03-14T06:46:47.405Z,0.50
2023-03-14T06:49:14.182Z,0.50
2023-03-14T06:51:42.016Z,0.40
2023-03-14T06:54:10.618Z,0.80
2023-03-14T06:56:37.544Z,0.68
2023-03-14T06:59:04.902Z,0.80
2023-03-14T07:01:39.087Z,0.77
2023-03-14T07:04:09.127Z,0.80
2023-03-14T07:06:38.326Z,0.98
2023-03-14T07:09:05.363Z,0.68
2023-03-14T07:11:35.565Z,0.55
2023-03-14T07:14:03.254Z,0.80
2023-03-14T07:16:32.334Z,0.90
2023-03-14T07:18:59.113Z,1.00
2023-03-14T07:21:26.231Z,1.15
2023-03-14T07:23:53.261Z,1.30
2023-03-14T07:26:20.211Z,1.00
2023-03-14T07:28:50.731Z,0.80
2023-03-14T07:31:19.844Z,1.10
2023-03-14T07:33:47.284Z,0.90
2023-03-14T07:36:14.346Z,1.10
2023-03-14T07:38:44.012Z,0.80
2023-03-14T07:41:31.494Z,0.68
2023-03-14T07:44:20.735Z,0.90
2023-03-14T07:46:47.554Z,0.60
2023-03-14T07:49:14.288Z,0.82
2023-03-14T07:51:40.887Z,0.60
2023-03-14T07:54:07.486Z,0.98
2023-03-14T07:56:34.117Z,0.60
2023-03-14T07:59:00.867Z,0.80
2023-03-14T08:01:27.602Z,0.73
2023-03-14T08:03:54.649Z,0.50
2023-03-14T08:06:21.414Z,0.50
2023-03-14T08:08:48.166Z,0.82
2023-03-14T08:11:14.941Z,0.70
2023-03-14T08:13:41.591Z,0.88
2023-03-14T08:16:08.955Z,0.80
2023-03-14T08:18:35.539Z,1.00
2023-03-14T08:21:02.323Z,0.80
2023-03-14T08:23:29.025Z,0.73
2023-03-14T08:25:55.834Z,1.05
2023-03-14T08:28:22.501Z,0.90
2023-03-14T08:30:49.458Z,1.08
2023-03-14T08:33:16.136Z,1.40
2023-03-14T08:35:43.136Z,0.75
2023-03-14T08:38:10.094Z,1.20
2023-03-14T08:40:36.891Z,0.80
2023-03-14T08:43:03.502Z,0.60
2023-03-14T08:45:30.284Z,0.70
2023-03-14T08:47:58.667Z,0.55
2023-03-14T08:50:25.864Z,0.63
2023-03-14T08:52:53.021Z,0.60
2023-03-14T08:55:19.748Z,0.70
2023-03-14T08:57:47.022Z,0.65
2023-03-14T09:00:16.203Z,0.70
2023-03-14T09:02:44.200Z,0.60
2023-03-14T09:05:11.887Z,0.73
2023-03-14T09:07:42.596Z,0.90
2023-03-14T09:10:10.819Z,0.80
2023-03-14T09:12:37.430Z,0.88
2023-03-14T09:15:04.752Z,0.93
2023-03-14T09:17:31.401Z,0.90
2023-03-14T09:20:00.430Z,1.02
2023-03-14T09:22:27.285Z,1.20
2023-03-14T09:24:53.993Z,1.10
2023-03-14T09:27:20.591Z,1.13
2023-03-14T09:29:47.248Z,0.82
2023-03-14T09:32:13.879Z,0.73
2023-03-14T09:34:40.559Z,0.65
2023-03-14T09:37:07.175Z,0.80
2023-03-14T09:39:33.900Z,0.82
2023-03-14T09:42:05.869Z,0.60
2023-03-14T09:45:07.357Z,0.57
2023-03-14T09:47:35.812Z,0.65
2023-03-14T09:50:02.700Z,0.60
2023-03-14T09:52:34.400Z,1.00
2023-03-14T09:55:04.299Z,0.65
2023-03-14T09:57:34.792Z,0.60
2023-03-14T10:00:15.150Z,0.57
2023-03-14T10:02:46.981Z,0.40
2023-03-14T10:05:19.810Z,0.60
2023-03-14T10:07:46.784Z,0.70
2023-03-14T10:10:19.176Z,0.80
2023-03-14T10:12:56.701Z,0.95
2023-03-14T10:15:35.098Z,0.70
2023-03-14T10:18:04.907Z,0.88
2023-03-14T10:20:37.042Z,1.50
2023-03-14T10:23:12.600Z,0.80
2023-03-14T10:28:31.747Z,1.10
2023-03-14T10:30:59.670Z,0.93
2023-03-14T10:33:38.084Z,0.65
2023-03-14T10:36:17.720Z,0.50
2023-03-14T10:38:44.875Z,0.73
2023-03-14T10:41:26.200Z,0.63
2023-03-14T10:43:57.311Z,0.50
2023-03-14T10:46:26.860Z,0.60
2023-03-14T10:49:28.343Z,0.85
2023-03-14T10:51:55.249Z,0.70
2023-03-14T10:54:24.742Z,0.50
2023-03-14T10:56:59.200Z,0.60
2023-03-14T10:59:30.124Z,0.90
2023-03-14T11:02:02.097Z,0.80
2023-03-14T11:05:03.509Z,0.85
2023-03-14T11:07:44.214Z,0.70
2023-03-14T11:10:32.119Z,0.93
2023-03-14T11:13:08.080Z,1.10
2023-03-14T11:15:52.956Z,0.63
2023-03-14T11:19:10.980Z,0.55
2023-03-14T11:21:52.713Z,0.45
2023-03-14T11:24:26.689Z,0.35
2023-03-14T11:27:45.854Z,0.50
2023-03-14T11:30:31.878Z,0.30
2023-03-14T11:35:36.981Z,0.43
2023-03-14T11:38:23.006Z,0.50
2023-03-14T11:40:53.622Z,0.60
2023-03-14T11:43:30.689Z,0.40
2023-03-14T11:46:09.571Z,0.57
2023-03-14T11:48:44.568Z,0.50
2023-03-14T11:51:24.637Z,0.65
2023-03-14T11:54:15.213Z,1.00
2023-03-14T11:56:54.828Z,1.23
2023-03-14T11:59:53.598Z,0.80
2023-03-14T12:02:33.643Z,0.70
2023-03-14T12:05:22.243Z,0.75
2023-03-14T12:08:08.505Z,0.80
2023-03-14T12:10:57.888Z,0.50
2023-03-14T12:13:32.475Z,0.68
2023-03-14T12:16:04.807Z,0.60
2023-03-14T12:18:40.456Z,0.50
2023-03-14T12:23:44.345Z,0.60
2023-03-14T12:26:13.695Z,0.60
2023-03-14T12:28:46.326Z,0.40
2023-03-14T12:31:42.531Z,0.40
2023-03-14T12:34:12.401Z,0.52
2023-03-14T12:36:51.236Z,0.40
2023-03-14T12:39:45.022Z,0.52
2023-03-14T12:42:43.929Z,0.57
2023-03-14T12:45:26.589Z,0.65
2023-03-14T12:48:20.910Z,0.55
2023-03-14T12:51:04.356Z,0.75
2023-03-14T12:53:55.859Z,0.60
2023-03-14T12:56:40.931Z,0.95
2023-03-14T12:59:17.162Z,0.60
2023-03-14T13:02:09.525Z,0.70
2023-03-14T13:04:44.615Z,0.80
2023-03-14T13:07:32.534Z,0.70
2023-03-14T13:10:05.356Z,0.82
2023-03-14T13:12:41.264Z,0.75
2023-03-14T13:15:41.273Z,0.75
2023-03-14T13:18:14.644Z,0.80
2023-03-14T13:20:54.177Z,1.08
2023-03-14T13:23:27.221Z,0.80
2023-03-14T13:25:54.708Z,0.95
2023-03-14T13:28:22.094Z,1.23
2023-03-14T13:30:52.248Z,0.90
2023-03-14T13:33:22.420Z,0.88
2023-03-14T13:36:00.718Z,0.80
2023-03-14T13:38:29.603Z,0.90
2023-03-14T13:41:01.627Z,0.80
2023-03-14T13:43:32.204Z,0.77
2023-03-14T13:46:15.105Z,0.80
2023-03-14T13:48:47.481Z,0.90
2023-03-14T13:51:17.276Z,0.85
2023-03-14T13:53:55.427Z,0.80
2023-03-14T13:56:24.979Z,0.85
2023-03-14T13:58:52.016Z,0.82
2023-03-14T14:01:35.517Z,0.77
2023-03-14T14:04:15.297Z,0.88
2023-03-14T14:06:52.698Z,0.95
2023-03-14T14:09:32.299Z,1.20
2023-03-14T14:12:21.239Z,0.70
2023-03-14T14:15:12.563Z,0.80
2023-03-14T14:17:47.460Z,0.90
2023-03-14T14:20:39.725Z,1.10
2023-03-14T14:23:10.696Z,0.90
2023-03-14T14:25:38.179Z,0.80
2023-03-14T14:28:36.017Z,0.82
2023-03-14T14:31:04.344Z,0.65
2023-03-14T14:33:43.051Z,1.00
2023-03-14T14:36:26.376Z,0.68
2023-03-14T14:38:55.423Z,0.50
2023-03-14T14:41:22.313Z,0.93
2023-03-14T14:43:49.714Z,0.80
2023-03-14T14:46:19.421Z,0.63
2023-03-14T14:48:50.407Z,0.60
2023-03-14T14:51:28.133Z,0.90
2023-03-14T14:54:14.265Z,0.50
2023-03-14T14:56:41.394Z,0.25
2023-03-14T14:59:22.286Z,0.95
2023-03-14T15:01:49.279Z,0.82
2023-03-14T15:04:16.573Z,0.70
2023-03-14T15:06:50.084Z,0.55
2023-03-14T15:09:18.239Z,0.60
2023-03-14T15:11:45.273Z,0.55
2023-03-14T15:14:12.004Z,0.68
2023-03-14T15:16:40.251Z,0.88
2023-03-14T15:19:24.256Z,0.63
2023-03-14T15:21:53.600Z,0.47
2023-03-14T15:24:20.516Z,0.70
2023-03-14T15:26:47.251Z,0.60
2023-03-14T15:29:13.931Z,0.60
2023-03-14T15:31:41.704Z,0.55
2023-03-14T15:34:09.902Z,0.50
2023-03-14T15:36:37.788Z,0.70
2023-03-14T15:39:07.131Z,0.70
2023-03-14T15:41:34.182Z,0.70
2023-03-14T15:44:00.861Z,0.88
2023-03-14T15:46:29.910Z,0.90
2023-03-14T15:48:57.680Z,0.52
2023-03-14T15:51:24.351Z,0.50
2023-03-14T15:53:52.632Z,0.50
2023-03-14T15:56:21.037Z,0.50
2023-03-14T15:58:47.852Z,0.50
2023-03-14T16:01:17.005Z,0.57
2023-03-14T16:03:47.210Z,0.80
2023-03-14T16:06:14.584Z,0.60
2023-03-14T16:08:41.658Z,0.50
2023-03-14T16:11:09.736Z,0.85
2023-03-14T16:13:36.448Z,0.38
2023-03-14T16:16:05.531Z,0.60
2023-03-14T16:18:35.213Z,0.73
2023-03-14T16:21:07.832Z,1.38
2023-03-14T16:23:36.273Z,0.75
2023-03-14T16:26:12.082Z,0.60
2023-03-14T16:28:39.258Z,0.50
2023-03-14T16:31:08.431Z,0.40
2023-03-14T16:33:36.123Z,1.30
2023-03-14T16:36:12.305Z,1.80
2023-03-14T16:38:41.367Z,1.10
2023-03-14T16:41:12.798Z,0.75
2023-03-14T16:43:39.949Z,0.77
2023-03-14T16:46:11.213Z,0.65
2023-03-14T16:48:38.583Z,0.70
2023-03-14T16:51:05.454Z,0.90
2023-03-14T16:53:32.180Z,0.90
2023-03-14T16:55:59.769Z,0.70
2023-03-14T16:58:26.907Z,1.10
2023-03-14T17:00:53.759Z,0.38
2023-03-14T17:03:20.542Z,0.60
2023-03-14T17:05:49.260Z,0.70
2023-03-14T17:08:20.368Z,0.90
2023-03-14T17:10:47.514Z,0.90
2023-03-14T17:13:14.502Z,0.10
2023-03-14T17:15:52.474Z,0.28
2023-03-14T17:18:19.131Z,0.20
2023-03-14T17:20:48.395Z,0.20
2023-03-14T17:23:16.226Z,0.68
2023-03-14T17:25:43.266Z,0.55
2023-03-14T17:28:10.203Z,0.50
2023-03-14T17:30:36.906Z,0.20
2023-03-14T17:33:03.945Z,0.20
2023-03-14T17:35:30.693Z,0.25
2023-03-14T17:37:57.607Z,0.20
2023-03-14T17:40:24.359Z,0.30
2023-03-14T17:42:51.680Z,0.20
2023-03-14T17:45:18.684Z,0.30
2023-03-14T17:47:45.563Z,0.32
2023-03-14T17:50:13.360Z,0.70
2023-03-14T17:52:40.622Z,0.60
2023-03-14T17:55:08.441Z,0.73
2023-03-14T17:57:38.576Z,0.50
2023-03-14T18:00:09.288Z,0.40
2023-03-14T18:02:36.287Z,0.50
2023-03-14T18:05:03.834Z,0.60
2023-03-14T18:07:34.334Z,0.80
2023-03-14T18:10:01.208Z,0.70
2023-03-14T18:12:28.797Z,0.43
2023-03-14T18:14:55.695Z,0.32
2023-03-14T18:17:22.498Z,0.50
2023-03-14T18:19:49.430Z,0.30
2023-03-14T18:22:16.202Z,0.40
2023-03-14T18:24:43.194Z,0.50
2023-03-14T18:27:09.882Z,0.20
2023-03-14T18:29:37.148Z,0.60
2023-03-14T18:32:03.754Z,0.38
2023-03-14T18:34:33.238Z,0.28
2023-03-14T18:37:00.825Z,0.68
2023-03-14T18:39:27.583Z,0.30
2023-03-14T18:41:54.434Z,0.57
2023-03-14T18:44:21.557Z,1.67
2023-03-14T18:46:49.866Z,1.30
2023-03-14T18:49:16.490Z,0.70
2023-03-14T18:51:43.512Z,0.95
2023-03-14T18:54:11.558Z,1.10
2023-03-14T18:56:42.315Z,0.90
2023-03-14T18:59:10.003Z,0.98
2023-03-14T19:01:37.336Z,0.90
2023-03-14T19:04:04.997Z,0.50
2023-03-14T19:06:32.987Z,0.47
2023-03-14T19:09:01.212Z,0.40
2023-03-14T19:11:28.557Z,0.80
2023-03-14T19:13:56.872Z,0.35
2023-03-14T19:16:24.712Z,0.40
2023-03-14T19:18:55.686Z,0.40
2023-03-14T19:21:31.670Z,0.30
2023-03-14T19:23:59.071Z,0.30
2023-03-14T19:26:25.864Z,0.90
2023-03-14T19:28:55.109Z,1.10
2023-03-14T19:31:22.091Z,1.00
2023-03-14T19:33:48.873Z,2.25
2023-03-14T19:36:28.540Z,2.33
2023-03-14T19:38:56.053Z,1.48
2023-03-14T19:41:25.139Z,0.70
2023-03-14T19:43:52.505Z,0.63
2023-03-14T19:46:19.607Z,0.30
2023-03-14T19:48:46.629Z,0.55
2023-03-14T19:51:14.101Z,0.40
2023-03-14T19:53:44.730Z,0.60
2023-03-14T19:56:12.178Z,0.55
2023-03-14T19:58:40.273Z,0.40
2023-03-14T20:01:08.120Z,0.30
2023-03-14T20:03:37.573Z,0.25
2023-03-14T20:06:06.380Z,0.20
2023-03-14T20:08:33.125Z,0.30
2023-03-14T20:10:59.806Z,0.30
2023-03-14T20:13:26.506Z,0.30
2023-03-14T20:15:53.278Z,0.30
2023-03-14T20:18:19.997Z,0.38
2023-03-14T20:20:46.944Z,0.60
2023-03-14T20:23:14.444Z,0.40
2023-03-14T20:25:41.826Z,0.40
2023-03-14T20:28:08.626Z,0.75
2023-03-14T20:30:35.368Z,0.47
2023-03-14T20:33:04.981Z,0.13
2023-03-14T20:35:31.954Z,0.70
2023-03-14T20:37:58.670Z,0.60
2023-03-14T20:40:28.610Z,0.40
2023-03-14T20:42:55.585Z,0.50
2023-03-14T20:45:22.252Z,0.52
2023-03-14T20:47:48.937Z,0.40
2023-03-14T20:50:15.593Z,0.47
2023-03-14T20:52:42.458Z,0.20
2023-03-14T20:55:09.397Z,0.28
2023-03-14T20:57:36.156Z,0.30
2023-03-14T21:00:07.195Z,0.20
2023-03-14T21:02:37.396Z,0.30
2023-03-14T21:05:04.820Z,0.30
2023-03-14T21:07:34.419Z,0.30
2023-03-14T21:10:01.129Z,0.20
2023-03-14T21:12:27.758Z,0.20
2023-03-14T21:14:54.450Z,0.75
2023-03-14T21:17:21.191Z,0.50
2023-03-14T21:19:47.914Z,0.80
2023-03-14T21:22:18.411Z,0.80
2023-03-14T21:24:46.280Z,1.05
2023-03-14T21:27:13.563Z,1.20
2023-03-14T21:29:40.647Z,0.73
2023-03-14T21:32:07.658Z,0.80
2023-03-14T21:34:34.406Z,0.95
2023-03-14T21:37:01.026Z,0.68
2023-03-14T21:39:27.843Z,0.80
2023-03-14T21:41:54.689Z,0.63
2023-03-14T21:44:21.756Z,1.30
2023-03-14T21:46:49.497Z,0.20
2023-03-14T21:49:17.625Z,0.38
2023-03-14T21:51:47.334Z,0.30
2023-03-14T21:54:15.487Z,0.30
2023-03-14T21:56:43.945Z,0.38
2023-03-14T21:59:11.001Z,0.20
2023-03-14T22:01:37.747Z,0.70
2023-03-14T22:04:04.471Z,0.90
2023-03-14T22:06:31.229Z,0.70
2023-03-14T22:08:58.074Z,0.80
2023-03-14T22:11:25.244Z,0.50
2023-03-14T22:13:52.081Z,0.47
2023-03-14T22:16:18.816Z,0.50
2023-03-14T22:18:46.322Z,0.40
2023-03-14T22:21:12.930Z,0.40
2023-03-14T22:23:39.855Z,0.40
2023-03-14T22:26:06.428Z,0.32
2023-03-14T22:28:33.284Z,0.35
2023-03-14T22:31:02.274Z,0.30
2023-03-14T22:33:30.031Z,0.70
2023-03-14T22:35:56.720Z,1.02
2023-03-14T22:38:23.455Z,0.70
2023-03-14T22:40:50.282Z,0.95
2023-03-14T22:43:17.192Z,0.55
2023-03-14T22:45:43.913Z,0.40
2023-03-14T22:48:10.962Z,0.60
2023-03-14T22:50:39.806Z,0.50
2023-03-14T22:53:06.685Z,0.32
2023-03-14T22:55:33.237Z,0.28
2023-03-14T22:58:00.033Z,0.38
2023-03-14T23:00:27.965Z,0.30
2023-03-14T23:02:54.839Z,0.30
2023-03-14T23:05:21.825Z,0.20
2023-03-14T23:07:48.613Z,0.30
2023-03-14T23:10:15.357Z,0.17
2023-03-14T23:12:45.098Z,0.20
2023-03-14T23:15:18.025Z,1.00
2023-03-14T23:17:45.080Z,1.00
2023-03-14T23:20:12.721Z,0.43
2023-03-14T23:22:39.521Z,0.20
2023-03-14T23:25:06.893Z,0.13
2023-03-14T23:27:33.566Z,0.17
2023-03-14T23:30:00.366Z,0.10
2023-03-14T23:32:27.597Z,0.20
2023-03-14T23:34:54.279Z,0.20
2023-03-14T23:37:23.480Z,0.22
2023-03-14T23:39:50.325Z,0.40
2023-03-14T23:42:17.021Z,0.17
2023-03-14T23:44:43.683Z,0.10
2023-03-14T23:47:10.453Z,0.10
2023-03-14T23:49:37.167Z,0.65
2023-03-14T23:52:04.147Z,0.20
2023-03-14T23:54:30.797Z,0.30
2023-03-14T23:56:57.568Z,0.28
2023-03-14T23:59:24.313Z,0.20
